Megargel, TX (76370)

7:48 PM CDT on September 01, 2014 (GMT -0500)
DDR Longhorns Graham, Texas | Change Station
CLOSE
Current Station
Personal Weather Station
Location: Graham, TX
Elevation: 1178 ft
Nearby Weather Stations

Elev 1178 ft 33.18 °N, 98.67 °W | Updated 1 second ago

Clear
Clear
93.4 °F
Feels Like 95 °F
N
16.1
Wind Variable Wind from South
Gusts 18.0 mph

Today
High -- | Low -- °F
--% Chance of Precip.
Yesterday
High -- | Low -- °F
Precip. -- in
7:09 AM 8:00 PM
Waxing Crescent, 46% visible
Pressure 29.80 in
Visibility 10.0 miles
Clouds Clear
Heat Index 95 °F
Dew Point 63 °F
Humidity 37%
Rainfall 0.00 in
Snow Depth Not available.
UV 0 out of 12
Pollen 11.50 out of 12
Air Quality Not available.
Flu Activity Not available.
METAR KRPH 020035Z AUTO 13010G17KT 10SM CLR 34/17 A2980 RMK AO2 T03420174

More Conditions Fewer Conditions

Pressure 29.80 in
Visibility 10.0 miles
Clouds Clear
Heat Index 95 °F
Dew Point 63 °F
Humidity 37%
Rainfall 0.00 in
Snow Depth Not available.
UV 0 out of 12
Pollen 11.50 out of 12
Air Quality Not available.
Flu Activity Not available.
METAR KRPH 020035Z AUTO 13010G17KT 10SM CLR 34/17 A2980 RMK AO2 T03420174

More Conditions Fewer Conditions

10-Day Weather Forecast

Almanac

Astronomy

Sep. 01, 2014 Rise Set
Actual Time 7:09 AM CDT 8:00 PM CDT
Civil Twilight 6:43 AM CDT 8:25 PM CDT
Nautical Twilight 6:13 AM CDT 8:55 PM CDT
Astronomical Twilight 5:43 AM CDT 9:25 PM CDT
Moon 1:36 PM CDT (9/1) No Moon Set
Length of Visible Light 13h 41m
Length of Day
12h 50m
Tomorrow will be 1m 59s shorter.
Waxing Crescent, 46% of the Moon is Illuminated
Today
Waxing Crescent
Sep 2
First Quarter
Sep 8
Full
Sep 15
Last Quarter
Sep 24
New

Today's Extremes

State Highs State Lows

Community

WunderPhotos

Upload Photos

1,749,475 photos uploaded!

Nearby

Snow Depth

Station Depth Elevation
No new snow has been reported.

Earthquake Activity

City Distance Mag. Time & Date
No recent earthquake activity has been reported nearby.
Minimum magnitude displayed is 2.5.

Coastal Water Temperatures

Place Temperature
No Stations Reporting

Nearby Weather Stations